Terminal Aerodrome Forecast
Issued by NWS

Home | Current Version | Previous Version | Text Only | Print | Product List | Glossary On
Versions: 1 2 3 4 5 6 7 8 9 10 11 12 13 14 15
000
FTUS41 KBOX 221138
TAFBAF
TAF
KBAF 221138Z 2212/2312 00000KT P6SM -RA OVC015
     FM221400 00000KT 3SM BR VCSH OVC015
     FM222100 VRB03KT 2SM -RA BR OVC015
     FM230200 06004KT 3SM BR VCSH OVC008=

USA.gov is the U.S. government's official web portal to all federal, state and local government web resources and services.